sensor_id;sensor_type;location;lat;lon;timestamp;P1;durP1;ratioP1;P2;durP2;ratioP2
18651;SDS011;9455;54.302;10.124;2023-05-10T00:01:39;2.03;;;1.83;;
18651;SDS011;9455;54.302;10.124;2023-05-10T00:04:06;2.00;;;1.80;;
18651;SDS011;9455;54.302;10.124;2023-05-10T00:06:34;1.67;;;1.57;;
18651;SDS011;9455;54.302;10.124;2023-05-10T00:09:00;3.00;;;1.73;;
18651;SDS011;9455;54.302;10.124;2023-05-10T00:11:28;3.97;;;2.03;;
18651;SDS011;9455;54.302;10.124;2023-05-10T00:13:54;1.93;;;1.80;;
18651;SDS011;9455;54.302;10.124;2023-05-10T00:16:21;2.37;;;2.20;;
18651;SDS011;9455;54.302;10.124;2023-05-10T00:18:47;4.47;;;2.40;;
18651;SDS011;9455;54.302;10.124;2023-05-10T00:21:14;1.93;;;1.83;;
18651;SDS011;9455;54.302;10.124;2023-05-10T00:23:42;2.20;;;2.00;;
18651;SDS011;9455;54.302;10.124;2023-05-10T00:26:08;2.50;;;2.30;;
18651;SDS011;9455;54.302;10.124;2023-05-10T00:28:35;1.83;;;1.70;;
18651;SDS011;9455;54.302;10.124;2023-05-10T00:31:01;1.87;;;1.77;;
18651;SDS011;9455;54.302;10.124;2023-05-10T00:33:28;3.10;;;2.07;;
18651;SDS011;9455;54.302;10.124;2023-05-10T00:35:55;2.93;;;2.10;;
18651;SDS011;9455;54.302;10.124;2023-05-10T00:38:22;11.70;;;2.50;;
18651;SDS011;9455;54.302;10.124;2023-05-10T00:40:50;5.90;;;2.00;;
18651;SDS011;9455;54.302;10.124;2023-05-10T00:43:16;2.30;;;2.10;;
18651;SDS011;9455;54.302;10.124;2023-05-10T00:45:43;4.43;;;2.00;;
18651;SDS011;9455;54.302;10.124;2023-05-10T00:48:09;70.77;;;19.10;;
18651;SDS011;9455;54.302;10.124;2023-05-10T00:50:36;51.20;;;15.07;;
18651;SDS011;9455;54.302;10.124;2023-05-10T00:53:03;8.90;;;4.43;;
18651;SDS011;9455;54.302;10.124;2023-05-10T00:55:30;4.90;;;2.83;;
18651;SDS011;9455;54.302;10.124;2023-05-10T00:57:58;5.17;;;2.93;;
18651;SDS011;9455;54.302;10.124;2023-05-10T01:00:25;2.30;;;1.70;;
18651;SDS011;9455;54.302;10.124;2023-05-10T01:02:52;5.30;;;2.20;;
18651;SDS011;9455;54.302;10.124;2023-05-10T01:05:19;4.20;;;2.60;;
18651;SDS011;9455;54.302;10.124;2023-05-10T01:07:46;3.47;;;2.60;;
18651;SDS011;9455;54.302;10.124;2023-05-10T01:10:13;2.50;;;2.30;;
18651;SDS011;9455;54.302;10.124;2023-05-10T01:12:40;3.47;;;1.97;;
18651;SDS011;9455;54.302;10.124;2023-05-10T01:15:10;2.40;;;2.20;;
18651;SDS011;9455;54.302;10.124;2023-05-10T01:17:38;3.47;;;2.20;;
18651;SDS011;9455;54.302;10.124;2023-05-10T01:20:07;2.30;;;2.10;;
18651;SDS011;9455;54.302;10.124;2023-05-10T01:22:51;7.27;;;2.87;;
18651;SDS011;9455;54.302;10.124;2023-05-10T01:28:37;4.63;;;1.93;;
18651;SDS011;9455;54.302;10.124;2023-05-10T01:31:21;2.63;;;2.20;;
18651;SDS011;9455;54.302;10.124;2023-05-10T01:33:59;2.17;;;1.97;;
18651;SDS011;9455;54.302;10.124;2023-05-10T01:36:31;2.13;;;2.03;;
18651;SDS011;9455;54.302;10.124;2023-05-10T01:39:05;4.73;;;2.20;;
18651;SDS011;9455;54.302;10.124;2023-05-10T01:41:39;4.63;;;2.00;;
18651;SDS011;9455;54.302;10.124;2023-05-10T01:44:13;2.00;;;1.90;;
18651;SDS011;9455;54.302;10.124;2023-05-10T01:46:44;2.27;;;2.07;;
18651;SDS011;9455;54.302;10.124;2023-05-10T01:49:20;2.87;;;2.47;;
18651;SDS011;9455;54.302;10.124;2023-05-10T01:51:50;3.03;;;1.87;;
18651;SDS011;9455;54.302;10.124;2023-05-10T01:54:20;3.17;;;2.40;;
18651;SDS011;9455;54.302;10.124;2023-05-10T01:56:50;6.47;;;2.50;;
18651;SDS011;9455;54.302;10.124;2023-05-10T01:59:23;7.07;;;2.53;;
18651;SDS011;9455;54.302;10.124;2023-05-10T02:01:56;8.57;;;2.67;;
18651;SDS011;9455;54.302;10.124;2023-05-10T02:04:26;2.77;;;2.20;;
18651;SDS011;9455;54.302;10.124;2023-05-10T02:06:54;2.70;;;1.97;;
18651;SDS011;9455;54.302;10.124;2023-05-10T02:09:22;4.73;;;2.77;;
18651;SDS011;9455;54.302;10.124;2023-05-10T02:11:50;1.93;;;1.80;;
18651;SDS011;9455;54.302;10.124;2023-05-10T02:14:16;4.20;;;1.97;;
18651;SDS011;9455;54.302;10.124;2023-05-10T02:16:45;4.30;;;2.37;;
18651;SDS011;9455;54.302;10.124;2023-05-10T02:19:13;2.03;;;1.93;;
18651;SDS011;9455;54.302;10.124;2023-05-10T02:21:42;2.47;;;2.07;;
18651;SDS011;9455;54.302;10.124;2023-05-10T02:24:10;2.70;;;2.47;;
18651;SDS011;9455;54.302;10.124;2023-05-10T02:26:38;2.70;;;2.23;;
18651;SDS011;9455;54.302;10.124;2023-05-10T02:29:05;2.83;;;1.80;;
18651;SDS011;9455;54.302;10.124;2023-05-10T02:31:34;2.20;;;2.10;;
18651;SDS011;9455;54.302;10.124;2023-05-10T02:34:03;2.50;;;2.30;;
18651;SDS011;9455;54.302;10.124;2023-05-10T02:36:32;5.57;;;2.90;;
18651;SDS011;9455;54.302;10.124;2023-05-10T02:39:00;6.47;;;3.20;;
18651;SDS011;9455;54.302;10.124;2023-05-10T02:41:28;3.90;;;2.10;;
18651;SDS011;9455;54.302;10.124;2023-05-10T02:43:59;2.80;;;2.03;;
18651;SDS011;9455;54.302;10.124;2023-05-10T02:46:27;4.50;;;2.57;;
18651;SDS011;9455;54.302;10.124;2023-05-10T02:48:54;2.23;;;2.10;;
18651;SDS011;9455;54.302;10.124;2023-05-10T02:51:21;7.30;;;2.73;;
18651;SDS011;9455;54.302;10.124;2023-05-10T02:53:51;4.20;;;2.10;;
18651;SDS011;9455;54.302;10.124;2023-05-10T02:56:23;2.60;;;2.40;;
18651;SDS011;9455;54.302;10.124;2023-05-10T02:58:51;2.43;;;2.23;;
18651;SDS011;9455;54.302;10.124;2023-05-10T03:01:18;8.13;;;2.23;;
18651;SDS011;9455;54.302;10.124;2023-05-10T03:03:45;2.40;;;2.00;;
18651;SDS011;9455;54.302;10.124;2023-05-10T03:06:11;3.07;;;2.27;;
18651;SDS011;9455;54.302;10.124;2023-05-10T03:08:38;3.27;;;2.20;;
18651;SDS011;9455;54.302;10.124;2023-05-10T03:11:12;5.63;;;2.40;;
18651;SDS011;9455;54.302;10.124;2023-05-10T03:13:53;4.37;;;2.47;;
18651;SDS011;9455;54.302;10.124;2023-05-10T03:16:27;2.37;;;2.23;;
18651;SDS011;9455;54.302;10.124;2023-05-10T03:19:02;3.00;;;2.33;;
18651;SDS011;9455;54.302;10.124;2023-05-10T03:21:36;2.47;;;2.27;;
18651;SDS011;9455;54.302;10.124;2023-05-10T03:24:08;5.60;;;2.00;;
18651;SDS011;9455;54.302;10.124;2023-05-10T03:26:37;2.50;;;2.30;;
18651;SDS011;9455;54.302;10.124;2023-05-10T03:29:06;3.53;;;2.67;;
18651;SDS011;9455;54.302;10.124;2023-05-10T03:31:33;2.30;;;1.97;;
18651;SDS011;9455;54.302;10.124;2023-05-10T03:34:00;5.33;;;2.90;;
18651;SDS011;9455;54.302;10.124;2023-05-10T03:36:27;2.77;;;2.57;;
18651;SDS011;9455;54.302;10.124;2023-05-10T03:38:54;7.33;;;2.87;;
18651;SDS011;9455;54.302;10.124;2023-05-10T03:41:21;8.53;;;2.60;;
18651;SDS011;9455;54.302;10.124;2023-05-10T03:43:48;2.87;;;2.30;;
18651;SDS011;9455;54.302;10.124;2023-05-10T03:46:16;2.63;;;2.27;;
18651;SDS011;9455;54.302;10.124;2023-05-10T03:48:42;5.50;;;2.30;;
18651;SDS011;9455;54.302;10.124;2023-05-10T03:51:09;3.70;;;2.30;;
18651;SDS011;9455;54.302;10.124;2023-05-10T03:53:36;2.33;;;2.20;;
18651;SDS011;9455;54.302;10.124;2023-05-10T03:56:02;4.90;;;2.43;;
18651;SDS011;9455;54.302;10.124;2023-05-10T03:58:29;3.17;;;2.83;;
18651;SDS011;9455;54.302;10.124;2023-05-10T04:00:56;3.13;;;2.67;;
18651;SDS011;9455;54.302;10.124;2023-05-10T04:03:23;2.67;;;2.47;;
18651;SDS011;9455;54.302;10.124;2023-05-10T04:05:57;8.93;;;2.40;;
18651;SDS011;9455;54.302;10.124;2023-05-10T04:08:25;4.20;;;3.10;;
18651;SDS011;9455;54.302;10.124;2023-05-10T04:10:51;2.33;;;2.13;;
18651;SDS011;9455;54.302;10.124;2023-05-10T04:13:18;2.77;;;2.53;;
18651;SDS011;9455;54.302;10.124;2023-05-10T04:15:45;2.70;;;2.50;;
18651;SDS011;9455;54.302;10.124;2023-05-10T04:18:11;2.47;;;2.27;;
18651;SDS011;9455;54.302;10.124;2023-05-10T04:20:39;4.73;;;2.50;;
18651;SDS011;9455;54.302;10.124;2023-05-10T04:23:06;3.10;;;2.90;;
18651;SDS011;9455;54.302;10.124;2023-05-10T04:25:33;2.93;;;2.73;;
18651;SDS011;9455;54.302;10.124;2023-05-10T04:28:00;4.47;;;2.53;;
18651;SDS011;9455;54.302;10.124;2023-05-10T04:30:27;3.53;;;2.23;;
18651;SDS011;9455;54.302;10.124;2023-05-10T04:32:54;3.87;;;2.87;;
18651;SDS011;9455;54.302;10.124;2023-05-10T04:35:20;3.27;;;2.40;;
18651;SDS011;9455;54.302;10.124;2023-05-10T04:37:48;4.53;;;2.67;;
18651;SDS011;9455;54.302;10.124;2023-05-10T04:40:15;2.73;;;2.53;;
18651;SDS011;9455;54.302;10.124;2023-05-10T04:42:42;2.87;;;2.67;;
18651;SDS011;9455;54.302;10.124;2023-05-10T04:45:10;3.07;;;2.50;;
18651;SDS011;9455;54.302;10.124;2023-05-10T04:47:36;3.20;;;2.80;;
18651;SDS011;9455;54.302;10.124;2023-05-10T04:50:03;2.83;;;2.60;;
18651;SDS011;9455;54.302;10.124;2023-05-10T04:52:31;3.40;;;3.10;;
18651;SDS011;9455;54.302;10.124;2023-05-10T04:54:59;10.10;;;3.87;;
18651;SDS011;9455;54.302;10.124;2023-05-10T04:57:26;8.00;;;2.80;;
18651;SDS011;9455;54.302;10.124;2023-05-10T04:59:52;2.93;;;2.73;;
18651;SDS011;9455;54.302;10.124;2023-05-10T05:02:19;3.40;;;2.80;;
18651;SDS011;9455;54.302;10.124;2023-05-10T05:04:45;5.70;;;2.73;;
18651;SDS011;9455;54.302;10.124;2023-05-10T05:07:12;4.60;;;2.57;;
18651;SDS011;9455;54.302;10.124;2023-05-10T05:09:39;3.47;;;2.83;;
18651;SDS011;9455;54.302;10.124;2023-05-10T05:12:07;5.57;;;3.00;;
18651;SDS011;9455;54.302;10.124;2023-05-10T05:14:38;3.47;;;3.17;;
18651;SDS011;9455;54.302;10.124;2023-05-10T05:17:05;3.53;;;2.73;;
18651;SDS011;9455;54.302;10.124;2023-05-10T05:19:31;2.93;;;2.70;;
18651;SDS011;9455;54.302;10.124;2023-05-10T05:21:58;9.53;;;2.73;;
18651;SDS011;9455;54.302;10.124;2023-05-10T05:24:25;3.17;;;2.60;;
18651;SDS011;9455;54.302;10.124;2023-05-10T05:26:51;5.90;;;2.80;;
18651;SDS011;9455;54.302;10.124;2023-05-10T05:29:19;4.40;;;2.67;;
18651;SDS011;9455;54.302;10.124;2023-05-10T05:31:46;2.63;;;2.30;;
18651;SDS011;9455;54.302;10.124;2023-05-10T05:34:12;4.33;;;2.73;;
18651;SDS011;9455;54.302;10.124;2023-05-10T05:36:39;3.10;;;2.80;;
18651;SDS011;9455;54.302;10.124;2023-05-10T05:39:05;2.87;;;2.67;;
18651;SDS011;9455;54.302;10.124;2023-05-10T05:41:32;6.57;;;3.13;;
18651;SDS011;9455;54.302;10.124;2023-05-10T05:43:59;2.47;;;2.27;;
18651;SDS011;9455;54.302;10.124;2023-05-10T05:46:26;2.70;;;2.50;;
18651;SDS011;9455;54.302;10.124;2023-05-10T05:48:53;4.87;;;3.33;;
18651;SDS011;9455;54.302;10.124;2023-05-10T05:51:20;5.90;;;2.97;;
18651;SDS011;9455;54.302;10.124;2023-05-10T05:53:46;4.73;;;2.90;;
18651;SDS011;9455;54.302;10.124;2023-05-10T05:56:13;2.80;;;2.60;;
18651;SDS011;9455;54.302;10.124;2023-05-10T05:58:39;4.30;;;3.03;;
18651;SDS011;9455;54.302;10.124;2023-05-10T06:01:06;4.33;;;3.07;;
18651;SDS011;9455;54.302;10.124;2023-05-10T06:03:34;3.57;;;2.97;;
18651;SDS011;9455;54.302;10.124;2023-05-10T06:06:02;6.10;;;3.10;;
18651;SDS011;9455;54.302;10.124;2023-05-10T06:08:28;2.80;;;2.60;;
18651;SDS011;9455;54.302;10.124;2023-05-10T06:10:55;2.50;;;2.30;;
18651;SDS011;9455;54.302;10.124;2023-05-10T06:13:21;2.73;;;2.50;;
18651;SDS011;9455;54.302;10.124;2023-05-10T06:15:48;5.47;;;2.73;;
18651;SDS011;9455;54.302;10.124;2023-05-10T06:18:15;5.47;;;2.70;;
18651;SDS011;9455;54.302;10.124;2023-05-10T06:20:42;2.67;;;2.47;;
18651;SDS011;9455;54.302;10.124;2023-05-10T06:23:09;7.30;;;2.70;;
18651;SDS011;9455;54.302;10.124;2023-05-10T06:25:36;6.10;;;2.63;;
18651;SDS011;9455;54.302;10.124;2023-05-10T06:28:02;6.10;;;2.90;;
18651;SDS011;9455;54.302;10.124;2023-05-10T06:30:29;3.67;;;2.80;;
18651;SDS011;9455;54.302;10.124;2023-05-10T06:32:55;2.80;;;2.70;;
18651;SDS011;9455;54.302;10.124;2023-05-10T06:35:22;6.43;;;2.83;;
18651;SDS011;9455;54.302;10.124;2023-05-10T06:37:50;5.03;;;2.93;;
18651;SDS011;9455;54.302;10.124;2023-05-10T06:40:17;4.27;;;2.67;;
18651;SDS011;9455;54.302;10.124;2023-05-10T06:42:44;2.97;;;2.57;;
18651;SDS011;9455;54.302;10.124;2023-05-10T06:45:11;3.77;;;2.60;;
18651;SDS011;9455;54.302;10.124;2023-05-10T06:47:38;4.17;;;3.20;;
18651;SDS011;9455;54.302;10.124;2023-05-10T06:50:05;8.53;;;2.70;;
18651;SDS011;9455;54.302;10.124;2023-05-10T06:52:32;8.73;;;2.77;;
18651;SDS011;9455;54.302;10.124;2023-05-10T06:55:00;3.13;;;2.87;;
18651;SDS011;9455;54.302;10.124;2023-05-10T06:57:28;5.27;;;2.50;;
18651;SDS011;9455;54.302;10.124;2023-05-10T06:59:54;7.50;;;3.60;;
18651;SDS011;9455;54.302;10.124;2023-05-10T07:02:22;2.90;;;2.50;;
18651;SDS011;9455;54.302;10.124;2023-05-10T07:04:48;3.93;;;2.70;;
18651;SDS011;9455;54.302;10.124;2023-05-10T07:07:16;2.50;;;2.30;;
18651;SDS011;9455;54.302;10.124;2023-05-10T07:09:43;2.90;;;2.70;;
18651;SDS011;9455;54.302;10.124;2023-05-10T07:12:11;6.27;;;2.93;;
18651;SDS011;9455;54.302;10.124;2023-05-10T07:14:38;2.87;;;2.67;;
18651;SDS011;9455;54.302;10.124;2023-05-10T07:17:04;2.83;;;2.63;;
18651;SDS011;9455;54.302;10.124;2023-05-10T07:19:31;6.03;;;3.10;;
18651;SDS011;9455;54.302;10.124;2023-05-10T07:21:58;4.27;;;3.07;;
18651;SDS011;9455;54.302;10.124;2023-05-10T07:24:25;10.23;;;3.10;;
18651;SDS011;9455;54.302;10.124;2023-05-10T07:26:51;3.53;;;3.23;;
18651;SDS011;9455;54.302;10.124;2023-05-10T07:29:19;4.07;;;2.30;;
18651;SDS011;9455;54.302;10.124;2023-05-10T07:31:46;3.83;;;2.67;;
18651;SDS011;9455;54.302;10.124;2023-05-10T07:34:13;2.83;;;2.37;;
18651;SDS011;9455;54.302;10.124;2023-05-10T07:36:39;2.33;;;2.13;;
18651;SDS011;9455;54.302;10.124;2023-05-10T07:39:06;4.37;;;2.43;;
18651;SDS011;9455;54.302;10.124;2023-05-10T07:41:32;2.50;;;2.30;;
18651;SDS011;9455;54.302;10.124;2023-05-10T07:43:59;3.80;;;2.57;;
18651;SDS011;9455;54.302;10.124;2023-05-10T07:46:27;4.53;;;2.40;;
18651;SDS011;9455;54.302;10.124;2023-05-10T07:48:54;2.77;;;2.57;;
18651;SDS011;9455;54.302;10.124;2023-05-10T07:51:20;4.37;;;2.90;;
18651;SDS011;9455;54.302;10.124;2023-05-10T07:53:47;3.83;;;2.93;;
18651;SDS011;9455;54.302;10.124;2023-05-10T07:56:21;3.83;;;3.03;;
18651;SDS011;9455;54.302;10.124;2023-05-10T07:58:50;2.67;;;2.37;;
18651;SDS011;9455;54.302;10.124;2023-05-10T08:01:17;3.30;;;2.70;;
18651;SDS011;9455;54.302;10.124;2023-05-10T08:03:45;3.83;;;2.43;;
18651;SDS011;9455;54.302;10.124;2023-05-10T08:06:12;3.37;;;3.03;;
18651;SDS011;9455;54.302;10.124;2023-05-10T08:08:39;3.57;;;2.33;;
18651;SDS011;9455;54.302;10.124;2023-05-10T08:11:06;2.67;;;2.40;;
18651;SDS011;9455;54.302;10.124;2023-05-10T08:13:32;2.40;;;2.20;;
18651;SDS011;9455;54.302;10.124;2023-05-10T08:15:59;2.83;;;2.33;;
18651;SDS011;9455;54.302;10.124;2023-05-10T08:18:25;3.37;;;2.67;;
18651;SDS011;9455;54.302;10.124;2023-05-10T08:20:53;2.70;;;2.50;;
18651;SDS011;9455;54.302;10.124;2023-05-10T08:23:20;2.27;;;2.17;;
18651;SDS011;9455;54.302;10.124;2023-05-10T08:25:47;2.63;;;2.43;;
18651;SDS011;9455;54.302;10.124;2023-05-10T08:28:13;3.10;;;2.80;;
18651;SDS011;9455;54.302;10.124;2023-05-10T08:30:40;2.70;;;2.50;;
18651;SDS011;9455;54.302;10.124;2023-05-10T08:33:06;2.77;;;2.50;;
18651;SDS011;9455;54.302;10.124;2023-05-10T08:35:33;3.13;;;2.77;;
18651;SDS011;9455;54.302;10.124;2023-05-10T08:38:01;3.60;;;2.80;;
18651;SDS011;9455;54.302;10.124;2023-05-10T08:40:27;3.07;;;2.37;;
18651;SDS011;9455;54.302;10.124;2023-05-10T08:42:55;3.90;;;2.90;;
18651;SDS011;9455;54.302;10.124;2023-05-10T08:45:24;2.80;;;2.30;;
18651;SDS011;9455;54.302;10.124;2023-05-10T08:47:58;3.77;;;3.47;;
18651;SDS011;9455;54.302;10.124;2023-05-10T08:50:27;9.37;;;3.07;;
18651;SDS011;9455;54.302;10.124;2023-05-10T08:52:55;4.90;;;2.33;;
18651;SDS011;9455;54.302;10.124;2023-05-10T08:55:26;3.60;;;2.80;;
18651;SDS011;9455;54.302;10.124;2023-05-10T08:57:53;2.70;;;2.37;;
18651;SDS011;9455;54.302;10.124;2023-05-10T09:00:20;6.77;;;2.83;;
18651;SDS011;9455;54.302;10.124;2023-05-10T09:02:48;3.47;;;2.53;;
18651;SDS011;9455;54.302;10.124;2023-05-10T09:05:16;4.17;;;2.50;;
18651;SDS011;9455;54.302;10.124;2023-05-10T09:07:43;2.30;;;2.20;;
18651;SDS011;9455;54.302;10.124;2023-05-10T09:10:10;2.80;;;2.50;;
18651;SDS011;9455;54.302;10.124;2023-05-10T09:12:39;2.90;;;2.70;;
18651;SDS011;9455;54.302;10.124;2023-05-10T09:15:06;4.33;;;2.90;;
18651;SDS011;9455;54.302;10.124;2023-05-10T09:17:35;5.17;;;2.90;;
18651;SDS011;9455;54.302;10.124;2023-05-10T09:20:03;6.57;;;2.70;;
18651;SDS011;9455;54.302;10.124;2023-05-10T09:22:30;2.83;;;2.63;;
18651;SDS011;9455;54.302;10.124;2023-05-10T09:25:04;4.03;;;2.70;;
18651;SDS011;9455;54.302;10.124;2023-05-10T09:27:31;3.70;;;2.77;;
18651;SDS011;9455;54.302;10.124;2023-05-10T09:29:59;3.83;;;2.63;;
18651;SDS011;9455;54.302;10.124;2023-05-10T09:32:35;4.60;;;2.67;;
18651;SDS011;9455;54.302;10.124;2023-05-10T09:35:06;3.20;;;2.90;;
18651;SDS011;9455;54.302;10.124;2023-05-10T09:37:34;3.00;;;2.63;;
18651;SDS011;9455;54.302;10.124;2023-05-10T09:40:00;6.23;;;2.53;;
18651;SDS011;9455;54.302;10.124;2023-05-10T09:42:30;4.73;;;2.70;;
18651;SDS011;9455;54.302;10.124;2023-05-10T09:45:01;2.50;;;2.30;;
18651;SDS011;9455;54.302;10.124;2023-05-10T09:47:28;2.70;;;2.20;;
18651;SDS011;9455;54.302;10.124;2023-05-10T09:49:57;3.37;;;2.80;;
18651;SDS011;9455;54.302;10.124;2023-05-10T09:52:28;4.83;;;3.10;;
18651;SDS011;9455;54.302;10.124;2023-05-10T09:54:54;2.57;;;2.27;;
18651;SDS011;9455;54.302;10.124;2023-05-10T09:57:21;2.77;;;2.53;;
18651;SDS011;9455;54.302;10.124;2023-05-10T09:59:49;4.83;;;3.53;;
18651;SDS011;9455;54.302;10.124;2023-05-10T10:02:18;3.07;;;2.87;;
18651;SDS011;9455;54.302;10.124;2023-05-10T10:04:44;2.43;;;2.23;;
18651;SDS011;9455;54.302;10.124;2023-05-10T10:07:15;2.87;;;2.40;;
18651;SDS011;9455;54.302;10.124;2023-05-10T10:09:48;3.87;;;2.70;;
18651;SDS011;9455;54.302;10.124;2023-05-10T10:12:16;3.00;;;2.70;;
18651;SDS011;9455;54.302;10.124;2023-05-10T10:14:43;3.33;;;3.10;;
18651;SDS011;9455;54.302;10.124;2023-05-10T10:17:09;2.60;;;2.40;;
18651;SDS011;9455;54.302;10.124;2023-05-10T10:19:38;4.03;;;2.87;;
18651;SDS011;9455;54.302;10.124;2023-05-10T10:22:05;5.57;;;2.50;;
18651;SDS011;9455;54.302;10.124;2023-05-10T10:24:32;3.73;;;2.80;;
18651;SDS011;9455;54.302;10.124;2023-05-10T10:27:01;8.97;;;3.20;;
18651;SDS011;9455;54.302;10.124;2023-05-10T10:29:36;3.23;;;2.93;;
18651;SDS011;9455;54.302;10.124;2023-05-10T10:32:10;5.03;;;2.80;;
18651;SDS011;9455;54.302;10.124;2023-05-10T10:34:48;2.67;;;2.47;;
18651;SDS011;9455;54.302;10.124;2023-05-10T10:37:14;6.97;;;3.03;;
18651;SDS011;9455;54.302;10.124;2023-05-10T10:39:41;4.20;;;2.97;;
18651;SDS011;9455;54.302;10.124;2023-05-10T10:42:08;2.83;;;2.40;;
18651;SDS011;9455;54.302;10.124;2023-05-10T10:44:35;6.53;;;2.80;;
18651;SDS011;9455;54.302;10.124;2023-05-10T10:47:05;10.00;;;2.20;;
18651;SDS011;9455;54.302;10.124;2023-05-10T10:49:42;4.70;;;2.40;;
18651;SDS011;9455;54.302;10.124;2023-05-10T10:52:15;2.73;;;2.63;;
18651;SDS011;9455;54.302;10.124;2023-05-10T10:54:50;3.73;;;2.93;;
18651;SDS011;9455;54.302;10.124;2023-05-10T10:57:18;3.53;;;2.30;;
18651;SDS011;9455;54.302;10.124;2023-05-10T10:59:46;5.33;;;2.73;;
18651;SDS011;9455;54.302;10.124;2023-05-10T11:04:59;3.07;;;2.80;;
18651;SDS011;9455;54.302;10.124;2023-05-10T11:07:27;4.40;;;2.80;;
18651;SDS011;9455;54.302;10.124;2023-05-10T11:09:53;3.17;;;2.80;;
18651;SDS011;9455;54.302;10.124;2023-05-10T11:12:21;2.93;;;2.67;;
18651;SDS011;9455;54.302;10.124;2023-05-10T11:14:49;3.97;;;3.23;;
18651;SDS011;9455;54.302;10.124;2023-05-10T11:17:22;4.67;;;2.53;;
18651;SDS011;9455;54.302;10.124;2023-05-10T11:20:08;8.93;;;3.13;;
18651;SDS011;9455;54.302;10.124;2023-05-10T11:25:18;4.47;;;2.57;;
18651;SDS011;9455;54.302;10.124;2023-05-10T11:27:46;4.30;;;3.13;;
18651;SDS011;9455;54.302;10.124;2023-05-10T11:30:14;4.97;;;2.73;;
18651;SDS011;9455;54.302;10.124;2023-05-10T11:32:40;5.60;;;2.80;;
18651;SDS011;9455;54.302;10.124;2023-05-10T11:35:07;2.60;;;2.40;;
18651;SDS011;9455;54.302;10.124;2023-05-10T11:37:34;3.03;;;2.83;;
18651;SDS011;9455;54.302;10.124;2023-05-10T11:40:02;2.90;;;2.70;;
18651;SDS011;9455;54.302;10.124;2023-05-10T11:42:29;2.80;;;2.60;;
18651;SDS011;9455;54.302;10.124;2023-05-10T11:44:56;6.80;;;2.53;;
18651;SDS011;9455;54.302;10.124;2023-05-10T11:47:22;3.37;;;3.07;;
18651;SDS011;9455;54.302;10.124;2023-05-10T11:49:49;3.73;;;2.53;;
18651;SDS011;9455;54.302;10.124;2023-05-10T11:52:16;4.90;;;2.67;;
18651;SDS011;9455;54.302;10.124;2023-05-10T11:54:45;3.63;;;2.50;;
18651;SDS011;9455;54.302;10.124;2023-05-10T11:57:13;2.87;;;2.53;;
18651;SDS011;9455;54.302;10.124;2023-05-10T11:59:40;2.80;;;2.47;;
18651;SDS011;9455;54.302;10.124;2023-05-10T12:02:07;3.10;;;2.90;;
18651;SDS011;9455;54.302;10.124;2023-05-10T12:04:33;3.03;;;2.67;;
18651;SDS011;9455;54.302;10.124;2023-05-10T12:07:00;8.30;;;3.27;;
18651;SDS011;9455;54.302;10.124;2023-05-10T12:09:27;4.20;;;3.10;;
18651;SDS011;9455;54.302;10.124;2023-05-10T12:11:55;4.90;;;2.93;;
18651;SDS011;9455;54.302;10.124;2023-05-10T12:14:23;5.47;;;3.13;;
18651;SDS011;9455;54.302;10.124;2023-05-10T12:16:50;2.93;;;2.73;;
18651;SDS011;9455;54.302;10.124;2023-05-10T12:19:18;3.13;;;2.90;;
18651;SDS011;9455;54.302;10.124;2023-05-10T12:21:46;8.60;;;3.47;;
18651;SDS011;9455;54.302;10.124;2023-05-10T12:24:13;2.87;;;2.70;;
18651;SDS011;9455;54.302;10.124;2023-05-10T12:26:41;4.97;;;3.20;;
18651;SDS011;9455;54.302;10.124;2023-05-10T12:29:11;4.63;;;3.83;;
18651;SDS011;9455;54.302;10.124;2023-05-10T12:31:54;4.37;;;3.97;;
18651;SDS011;9455;54.302;10.124;2023-05-10T12:34:22;4.00;;;3.67;;
18651;SDS011;9455;54.302;10.124;2023-05-10T12:36:51;5.90;;;4.57;;
18651;SDS011;9455;54.302;10.124;2023-05-10T12:39:18;7.03;;;5.10;;
18651;SDS011;9455;54.302;10.124;2023-05-10T12:41:45;11.57;;;4.10;;
18651;SDS011;9455;54.302;10.124;2023-05-10T12:44:12;5.87;;;4.50;;
18651;SDS011;9455;54.302;10.124;2023-05-10T12:46:38;8.00;;;4.77;;
18651;SDS011;9455;54.302;10.124;2023-05-10T12:49:06;11.47;;;4.83;;
18651;SDS011;9455;54.302;10.124;2023-05-10T12:51:33;20.30;;;5.57;;
18651;SDS011;9455;54.302;10.124;2023-05-10T12:53:59;11.47;;;5.13;;
18651;SDS011;9455;54.302;10.124;2023-05-10T12:56:26;7.57;;;4.90;;
18651;SDS011;9455;54.302;10.124;2023-05-10T12:58:52;8.23;;;4.53;;
18651;SDS011;9455;54.302;10.124;2023-05-10T13:01:19;14.33;;;6.43;;
18651;SDS011;9455;54.302;10.124;2023-05-10T13:03:45;10.80;;;6.07;;
18651;SDS011;9455;54.302;10.124;2023-05-10T13:06:14;9.97;;;5.80;;
18651;SDS011;9455;54.302;10.124;2023-05-10T13:08:40;9.57;;;6.37;;
18651;SDS011;9455;54.302;10.124;2023-05-10T13:11:07;11.27;;;6.23;;
18651;SDS011;9455;54.302;10.124;2023-05-10T13:13:34;11.63;;;6.73;;
18651;SDS011;9455;54.302;10.124;2023-05-10T13:16:00;7.83;;;5.53;;
18651;SDS011;9455;54.302;10.124;2023-05-10T13:18:27;7.70;;;5.57;;
18651;SDS011;9455;54.302;10.124;2023-05-10T13:20:54;12.97;;;6.23;;
18651;SDS011;9455;54.302;10.124;2023-05-10T13:23:22;14.20;;;6.87;;
18651;SDS011;9455;54.302;10.124;2023-05-10T13:25:48;12.07;;;6.23;;
18651;SDS011;9455;54.302;10.124;2023-05-10T13:28:15;12.10;;;6.33;;
18651;SDS011;9455;54.302;10.124;2023-05-10T13:30:41;9.30;;;5.77;;
18651;SDS011;9455;54.302;10.124;2023-05-10T13:33:08;6.93;;;5.50;;
18651;SDS011;9455;54.302;10.124;2023-05-10T13:35:35;10.13;;;5.47;;
18651;SDS011;9455;54.302;10.124;2023-05-10T13:38:01;8.87;;;6.03;;
18651;SDS011;9455;54.302;10.124;2023-05-10T13:40:29;12.97;;;6.07;;
18651;SDS011;9455;54.302;10.124;2023-05-10T13:42:56;6.00;;;5.03;;
18651;SDS011;9455;54.302;10.124;2023-05-10T13:45:22;11.60;;;6.17;;
18651;SDS011;9455;54.302;10.124;2023-05-10T13:47:49;7.30;;;5.10;;
18651;SDS011;9455;54.302;10.124;2023-05-10T13:50:16;10.63;;;6.17;;
18651;SDS011;9455;54.302;10.124;2023-05-10T13:52:43;8.67;;;5.73;;
18651;SDS011;9455;54.302;10.124;2023-05-10T13:55:09;8.57;;;5.40;;
18651;SDS011;9455;54.302;10.124;2023-05-10T13:57:38;8.50;;;5.17;;
18651;SDS011;9455;54.302;10.124;2023-05-10T14:00:06;10.03;;;5.30;;
18651;SDS011;9455;54.302;10.124;2023-05-10T14:02:33;11.10;;;5.13;;
18651;SDS011;9455;54.302;10.124;2023-05-10T14:05:00;11.53;;;6.10;;
18651;SDS011;9455;54.302;10.124;2023-05-10T14:07:26;12.60;;;6.77;;
18651;SDS011;9455;54.302;10.124;2023-05-10T14:09:53;13.40;;;7.27;;
18651;SDS011;9455;54.302;10.124;2023-05-10T14:12:19;13.23;;;6.53;;
18651;SDS011;9455;54.302;10.124;2023-05-10T14:14:47;8.97;;;5.67;;
18651;SDS011;9455;54.302;10.124;2023-05-10T14:17:14;8.47;;;5.70;;
18651;SDS011;9455;54.302;10.124;2023-05-10T14:19:41;12.73;;;7.20;;
18651;SDS011;9455;54.302;10.124;2023-05-10T14:22:07;15.10;;;6.53;;
18651;SDS011;9455;54.302;10.124;2023-05-10T14:24:34;15.03;;;6.20;;
18651;SDS011;9455;54.302;10.124;2023-05-10T14:27:00;9.20;;;5.37;;
18651;SDS011;9455;54.302;10.124;2023-05-10T14:29:27;7.77;;;5.70;;
18651;SDS011;9455;54.302;10.124;2023-05-10T14:31:55;9.27;;;6.57;;
18651;SDS011;9455;54.302;10.124;2023-05-10T14:34:21;8.57;;;5.13;;
18651;SDS011;9455;54.302;10.124;2023-05-10T14:36:48;7.97;;;6.07;;
18651;SDS011;9455;54.302;10.124;2023-05-10T14:39:14;8.87;;;5.53;;
18651;SDS011;9455;54.302;10.124;2023-05-10T14:41:41;8.50;;;5.67;;
18651;SDS011;9455;54.302;10.124;2023-05-10T14:44:09;7.77;;;5.27;;
18651;SDS011;9455;54.302;10.124;2023-05-10T14:46:36;10.00;;;5.60;;
18651;SDS011;9455;54.302;10.124;2023-05-10T14:49:04;10.60;;;4.93;;
18651;SDS011;9455;54.302;10.124;2023-05-10T14:51:31;7.20;;;4.93;;
18651;SDS011;9455;54.302;10.124;2023-05-10T14:53:58;5.80;;;4.97;;
18651;SDS011;9455;54.302;10.124;2023-05-10T14:56:24;9.07;;;5.37;;
18651;SDS011;9455;54.302;10.124;2023-05-10T14:58:52;7.43;;;4.57;;